createdAt,value
2023-03-15T00:01:38.046Z,5.82
2023-03-15T00:04:06.498Z,5.20
2023-03-15T00:06:35.680Z,5.35
2023-03-15T00:09:04.049Z,5.22
2023-03-15T00:11:32.535Z,5.75
2023-03-15T00:14:03.097Z,6.07
2023-03-15T00:16:32.934Z,6.18
2023-03-15T00:19:01.669Z,7.78
2023-03-15T00:21:30.298Z,7.10
2023-03-15T00:23:58.651Z,6.22
2023-03-15T00:26:27.000Z,6.32
2023-03-15T00:28:55.286Z,6.13
2023-03-15T00:31:27.189Z,6.38
2023-03-15T00:33:55.566Z,6.78
2023-03-15T00:36:26.909Z,6.47
2023-03-15T00:38:57.194Z,7.05
2023-03-15T00:41:25.867Z,7.20
2023-03-15T00:43:54.496Z,8.07
2023-03-15T00:46:24.153Z,6.82
2023-03-15T00:48:53.201Z,7.43
2023-03-15T00:51:23.817Z,8.20
2023-03-15T00:53:53.612Z,8.32
2023-03-15T00:56:23.483Z,9.43
2023-03-15T00:58:53.440Z,10.77
2023-03-15T01:01:25.144Z,11.60
2023-03-15T01:03:53.853Z,13.73
2023-03-15T01:06:24.405Z,12.07
2023-03-15T01:08:54.523Z,12.73
2023-03-15T01:11:25.932Z,14.13
2023-03-15T01:13:55.733Z,16.30
2023-03-15T01:16:26.676Z,15.98
2023-03-15T01:18:55.320Z,15.65
2023-03-15T01:21:25.263Z,15.20
2023-03-15T01:23:54.436Z,13.55
2023-03-15T01:26:25.538Z,13.75
2023-03-15T01:28:54.033Z,15.40
2023-03-15T01:31:24.269Z,14.75
2023-03-15T01:33:54.353Z,13.57
2023-03-15T01:36:23.268Z,16.50
2023-03-15T01:38:52.412Z,14.38
2023-03-15T01:41:27.411Z,13.55
2023-03-15T01:43:56.062Z,13.57
2023-03-15T01:46:30.206Z,13.90
2023-03-15T01:49:12.545Z,14.40
2023-03-15T01:51:47.368Z,13.35
2023-03-15T01:54:19.600Z,12.38
2023-03-15T01:56:53.862Z,11.93
2023-03-15T01:59:27.198Z,11.68
2023-03-15T02:01:57.160Z,11.35
2023-03-15T02:04:31.536Z,13.45
2023-03-15T02:07:02.858Z,11.45
2023-03-15T02:09:42.896Z,10.38
2023-03-15T02:12:12.220Z,11.95
2023-03-15T02:14:42.508Z,11.95
2023-03-15T02:17:14.541Z,10.73
2023-03-15T02:19:53.990Z,11.45
2023-03-15T02:22:32.672Z,11.20
2023-03-15T02:25:05.660Z,11.90
2023-03-15T02:27:37.769Z,10.20
2023-03-15T02:30:07.439Z,10.52
2023-03-15T02:32:36.152Z,9.27
2023-03-15T02:35:04.638Z,9.68
2023-03-15T02:37:32.856Z,10.65
2023-03-15T02:40:01.132Z,8.93
2023-03-15T02:42:29.829Z,9.85
2023-03-15T02:45:00.337Z,10.13
2023-03-15T02:47:34.086Z,9.07
2023-03-15T02:50:02.460Z,8.05
2023-03-15T02:52:30.936Z,8.70
2023-03-15T02:54:59.216Z,7.78
2023-03-15T02:57:27.471Z,8.35
2023-03-15T02:59:57.340Z,8.02
2023-03-15T03:02:27.051Z,7.90
2023-03-15T03:04:55.401Z,7.95
2023-03-15T03:07:23.778Z,7.43
2023-03-15T03:10:00.204Z,7.28
2023-03-15T03:12:29.195Z,5.78
2023-03-15T03:14:57.814Z,6.25
2023-03-15T03:17:27.527Z,7.25
2023-03-15T03:19:55.856Z,6.80
2023-03-15T03:22:31.578Z,5.93
2023-03-15T03:24:59.851Z,6.35
2023-03-15T03:27:28.128Z,7.07
2023-03-15T03:29:57.098Z,6.20
2023-03-15T03:32:25.615Z,6.90
2023-03-15T03:34:55.532Z,6.57
2023-03-15T03:37:24.984Z,6.88
2023-03-15T03:40:00.852Z,6.88
2023-03-15T03:42:29.152Z,6.90
2023-03-15T03:44:57.367Z,6.18
2023-03-15T03:47:31.452Z,6.22
2023-03-15T03:50:01.074Z,6.63
2023-03-15T03:52:30.066Z,6.65
2023-03-15T03:55:07.218Z,6.30
2023-03-15T03:57:35.536Z,6.70
2023-03-15T04:00:07.604Z,6.97
2023-03-15T04:02:43.893Z,6.75
2023-03-15T04:05:15.995Z,5.80
2023-03-15T04:07:44.873Z,6.57
2023-03-15T04:10:16.499Z,7.10
2023-03-15T04:12:48.181Z,5.72
2023-03-15T04:15:16.912Z,5.78
2023-03-15T04:17:45.243Z,5.38
2023-03-15T04:20:15.536Z,6.22
2023-03-15T04:22:49.650Z,6.15
2023-03-15T04:25:40.708Z,5.72
2023-03-15T04:28:34.209Z,6.28
2023-03-15T04:31:14.961Z,5.80
2023-03-15T04:34:03.501Z,6.57
2023-03-15T04:36:57.305Z,6.55
2023-03-15T04:39:35.540Z,6.40
2023-03-15T04:42:22.850Z,7.07
2023-03-15T04:45:00.053Z,6.65
2023-03-15T04:48:04.045Z,7.95
2023-03-15T04:50:39.989Z,6.75
2023-03-15T04:53:18.773Z,7.40
2023-03-15T04:55:53.328Z,8.70
2023-03-15T04:58:30.744Z,12.25
2023-03-15T05:01:29.949Z,13.05
2023-03-15T05:04:16.820Z,11.45
2023-03-15T05:06:54.952Z,11.25
2023-03-15T05:09:50.397Z,9.35
2023-03-15T05:12:24.456Z,10.13
2023-03-15T05:15:12.067Z,9.32
2023-03-15T05:18:04.165Z,10.25
2023-03-15T05:20:35.384Z,10.30
2023-03-15T05:23:15.689Z,11.70
2023-03-15T05:26:06.363Z,9.52
2023-03-15T05:29:09.618Z,9.02
2023-03-15T05:31:52.480Z,8.82
2023-03-15T05:34:42.936Z,9.02
2023-03-15T05:37:27.497Z,8.60
2023-03-15T05:40:29.876Z,9.18
2023-03-15T05:43:08.874Z,10.25
2023-03-15T05:45:49.506Z,7.55
2023-03-15T05:48:47.161Z,7.80
2023-03-15T05:51:27.443Z,6.65
2023-03-15T05:54:14.430Z,7.30
2023-03-15T05:57:07.840Z,7.10
2023-03-15T05:59:45.038Z,7.65
2023-03-15T06:02:33.337Z,6.93
2023-03-15T06:05:21.156Z,5.50
2023-03-15T06:07:49.516Z,5.93
2023-03-15T06:10:20.872Z,6.88
2023-03-15T06:12:50.220Z,6.88
2023-03-15T06:15:20.849Z,6.95
2023-03-15T06:17:50.637Z,6.60
2023-03-15T06:20:19.664Z,6.18
2023-03-15T06:22:47.997Z,6.38
2023-03-15T06:25:28.228Z,7.00
2023-03-15T06:27:56.576Z,7.13
2023-03-15T06:30:27.790Z,8.02
2023-03-15T06:32:59.347Z,7.13
2023-03-15T06:35:27.802Z,7.63
2023-03-15T06:37:56.138Z,7.40
2023-03-15T06:40:24.518Z,7.30
2023-03-15T06:42:52.803Z,7.75
2023-03-15T06:45:22.237Z,8.10
2023-03-15T06:47:52.609Z,8.48
2023-03-15T06:50:21.250Z,8.23
2023-03-15T06:52:49.598Z,7.70
2023-03-15T06:55:18.588Z,7.68
2023-03-15T06:57:47.605Z,8.02
2023-03-15T07:00:17.214Z,7.25
2023-03-15T07:02:45.506Z,8.10
2023-03-15T07:05:15.228Z,9.25
2023-03-15T07:07:43.428Z,8.50
2023-03-15T07:10:12.686Z,7.68
2023-03-15T07:12:41.004Z,9.25
2023-03-15T07:15:10.570Z,8.82
2023-03-15T07:17:38.790Z,9.43
2023-03-15T07:20:08.218Z,9.52
2023-03-15T07:22:38.063Z,8.15
2023-03-15T07:25:07.515Z,9.00
2023-03-15T07:27:35.854Z,7.88
2023-03-15T07:30:04.232Z,9.68
2023-03-15T07:32:32.939Z,7.22
2023-03-15T07:35:01.350Z,7.22
2023-03-15T07:37:30.075Z,7.05
2023-03-15T07:40:01.028Z,6.30
2023-03-15T07:42:29.294Z,7.35
2023-03-15T07:45:01.462Z,6.57
2023-03-15T07:47:29.587Z,6.30
2023-03-15T07:49:58.164Z,6.05
2023-03-15T07:52:26.879Z,6.10
2023-03-15T07:54:55.182Z,5.95
2023-03-15T07:57:25.836Z,6.10
2023-03-15T07:59:55.174Z,6.03
2023-03-15T08:02:23.494Z,6.43
2023-03-15T08:04:51.746Z,5.70
2023-03-15T08:07:20.112Z,6.60
2023-03-15T08:09:48.644Z,7.43
2023-03-15T08:12:16.901Z,6.60
2023-03-15T08:14:46.573Z,6.37
2023-03-15T08:17:16.272Z,6.00
2023-03-15T08:19:44.571Z,5.93
2023-03-15T08:22:12.882Z,4.30
2023-03-15T08:24:41.325Z,5.70
2023-03-15T08:27:10.097Z,6.20
2023-03-15T08:29:38.396Z,7.30
2023-03-15T08:32:09.035Z,7.57
2023-03-15T08:34:37.342Z,6.47
2023-03-15T08:37:05.984Z,7.40
2023-03-15T08:39:36.402Z,6.20
2023-03-15T08:42:05.236Z,5.93
2023-03-15T08:44:36.159Z,6.90
2023-03-15T08:47:05.198Z,6.47
2023-03-15T08:49:35.304Z,7.00
2023-03-15T08:52:03.512Z,6.73
2023-03-15T08:54:31.778Z,6.70
2023-03-15T08:57:00.052Z,7.00
2023-03-15T08:59:32.091Z,6.30
2023-03-15T09:02:01.301Z,5.97
2023-03-15T09:04:29.972Z,6.07
2023-03-15T09:07:00.140Z,7.10
2023-03-15T09:09:28.639Z,6.80
2023-03-15T09:11:56.945Z,5.63
2023-03-15T09:14:25.273Z,8.03
2023-03-15T09:16:53.609Z,6.53
2023-03-15T09:19:21.960Z,6.83
2023-03-15T09:21:50.179Z,6.53
2023-03-15T09:24:19.862Z,6.97
2023-03-15T09:26:48.320Z,6.67
2023-03-15T09:29:16.656Z,6.17
2023-03-15T09:31:44.885Z,6.03
2023-03-15T09:34:13.183Z,5.53
2023-03-15T09:36:41.381Z,6.37
2023-03-15T09:39:09.712Z,5.77
2023-03-15T09:41:48.454Z,5.60
2023-03-15T09:44:30.192Z,5.90
2023-03-15T09:47:10.035Z,5.53
2023-03-15T09:49:46.966Z,5.20
2023-03-15T09:52:27.525Z,5.33
2023-03-15T09:55:01.506Z,5.43
2023-03-15T09:57:38.928Z,6.43
2023-03-15T10:00:12.638Z,5.33
2023-03-15T10:02:48.064Z,5.60
2023-03-15T10:05:22.132Z,6.13
2023-03-15T10:07:50.491Z,5.80
2023-03-15T10:10:21.620Z,5.30
2023-03-15T10:13:03.590Z,6.10
2023-03-15T10:15:44.246Z,5.53
2023-03-15T10:18:28.090Z,5.80
2023-03-15T10:21:07.428Z,5.35
2023-03-15T10:23:44.989Z,6.60
2023-03-15T10:26:19.897Z,6.30
2023-03-15T10:28:50.426Z,5.70
2023-03-15T10:31:36.599Z,6.80
2023-03-15T10:34:12.610Z,6.17
2023-03-15T10:36:46.303Z,5.73
2023-03-15T10:39:14.723Z,7.17
2023-03-15T10:41:45.199Z,6.70
2023-03-15T10:44:17.504Z,6.30
2023-03-15T10:47:05.069Z,7.00
2023-03-15T10:49:42.554Z,6.97
2023-03-15T10:52:28.325Z,6.57
2023-03-15T10:55:02.497Z,6.75
2023-03-15T10:57:39.077Z,6.93
2023-03-15T11:00:24.049Z,6.70
2023-03-15T11:03:01.591Z,6.38
2023-03-15T11:05:32.465Z,6.95
2023-03-15T11:08:02.182Z,6.40
2023-03-15T11:10:35.760Z,7.65
2023-03-15T11:13:11.842Z,7.38
2023-03-15T11:15:49.407Z,6.50
2023-03-15T11:18:26.515Z,7.18
2023-03-15T11:20:57.596Z,6.20
2023-03-15T11:23:29.502Z,7.10
2023-03-15T11:25:57.946Z,6.55
2023-03-15T11:28:29.783Z,7.10
2023-03-15T11:31:01.881Z,6.97
2023-03-15T11:33:39.404Z,6.57
2023-03-15T11:36:15.316Z,7.35
2023-03-15T11:38:45.819Z,6.85
2023-03-15T11:41:25.311Z,7.85
2023-03-15T11:44:03.793Z,7.25
2023-03-15T11:46:38.262Z,6.53
2023-03-15T11:49:16.653Z,7.32
2023-03-15T11:51:45.052Z,7.32
2023-03-15T11:54:16.670Z,8.05
2023-03-15T11:56:56.117Z,8.25
2023-03-15T11:59:30.185Z,7.57
2023-03-15T12:02:02.521Z,8.50
2023-03-15T12:04:45.028Z,9.27
2023-03-15T12:07:58.024Z,8.35
2023-03-15T12:10:35.327Z,8.40
2023-03-15T12:13:20.242Z,8.30
2023-03-15T12:15:49.712Z,8.35
2023-03-15T12:18:28.187Z,8.10
2023-03-15T12:21:08.849Z,7.30
2023-03-15T12:23:41.670Z,7.22
2023-03-15T12:26:17.630Z,7.95
2023-03-15T12:28:53.994Z,7.43
2023-03-15T12:31:22.409Z,8.60
2023-03-15T12:33:57.752Z,8.57
2023-03-15T12:36:36.687Z,8.77
2023-03-15T12:39:23.287Z,8.65
2023-03-15T12:41:52.906Z,9.05
2023-03-15T12:44:39.007Z,10.00
2023-03-15T12:47:07.937Z,10.60
2023-03-15T12:49:40.304Z,9.95
2023-03-15T12:52:30.117Z,9.27
2023-03-15T12:55:06.074Z,8.10
2023-03-15T12:57:40.185Z,9.23
2023-03-15T13:00:15.832Z,8.40
2023-03-15T13:02:47.384Z,7.90
2023-03-15T13:05:26.951Z,8.68
2023-03-15T13:08:05.248Z,8.98
2023-03-15T13:10:38.885Z,5.70
2023-03-15T13:13:26.684Z,5.78
2023-03-15T13:16:09.079Z,6.00
2023-03-15T13:18:46.780Z,5.80
2023-03-15T13:21:25.095Z,6.30
2023-03-15T13:23:57.294Z,5.15
2023-03-15T13:26:46.675Z,4.30
2023-03-15T13:29:19.423Z,5.00
2023-03-15T13:31:48.377Z,5.43
2023-03-15T13:34:20.791Z,4.15
2023-03-15T13:36:55.710Z,4.63
2023-03-15T13:39:26.065Z,4.90
2023-03-15T13:41:59.823Z,4.55
2023-03-15T13:44:31.827Z,4.88
2023-03-15T13:47:01.415Z,4.70
2023-03-15T13:49:32.914Z,4.78
2023-03-15T13:52:05.439Z,5.00
2023-03-15T13:54:35.372Z,5.40
2023-03-15T13:57:07.478Z,5.03
2023-03-15T13:59:40.993Z,6.75
2023-03-15T14:02:17.074Z,7.63
2023-03-15T14:04:50.977Z,5.82
2023-03-15T14:07:35.426Z,6.90
2023-03-15T14:10:27.461Z,5.80
2023-03-15T14:12:57.393Z,5.50
2023-03-15T14:15:28.353Z,5.30
2023-03-15T14:18:02.195Z,5.65
2023-03-15T14:20:33.681Z,5.13
2023-03-15T14:23:06.371Z,6.40
2023-03-15T14:25:37.339Z,7.30
2023-03-15T14:28:07.378Z,6.30
2023-03-15T14:30:38.309Z,5.03
2023-03-15T14:33:08.918Z,6.25
2023-03-15T14:35:46.350Z,5.47
2023-03-15T14:38:23.245Z,5.72
2023-03-15T14:40:53.525Z,5.25
2023-03-15T14:43:21.865Z,5.75
2023-03-15T14:45:50.798Z,5.35
2023-03-15T14:48:27.866Z,5.53
2023-03-15T14:50:56.618Z,5.68
2023-03-15T14:53:28.073Z,4.97
2023-03-15T14:55:56.467Z,6.72
2023-03-15T14:58:24.873Z,6.30
2023-03-15T15:00:56.159Z,6.38
2023-03-15T15:03:31.269Z,6.90
2023-03-15T15:06:00.667Z,7.13
2023-03-15T15:08:32.348Z,6.70
2023-03-15T15:11:02.752Z,7.38
2023-03-15T15:13:32.704Z,7.05
2023-03-15T15:16:01.061Z,7.90
2023-03-15T15:18:31.630Z,7.22
2023-03-15T15:21:03.031Z,6.93
2023-03-15T15:23:47.426Z,8.95
2023-03-15T15:26:26.237Z,8.15
2023-03-15T15:28:54.846Z,9.25
2023-03-15T15:31:25.249Z,7.70
2023-03-15T15:33:54.885Z,8.50
2023-03-15T15:36:25.584Z,7.85
2023-03-15T15:38:56.894Z,8.57
2023-03-15T15:41:26.777Z,7.82
2023-03-15T15:43:55.581Z,10.80
2023-03-15T15:46:24.526Z,10.75
2023-03-15T15:48:53.376Z,10.60
2023-03-15T15:51:28.895Z,11.90
2023-03-15T15:54:00.330Z,12.55
2023-03-15T15:56:33.846Z,10.65
2023-03-15T15:59:04.584Z,10.38
2023-03-15T16:01:33.511Z,12.38
2023-03-15T16:04:03.633Z,10.68
2023-03-15T16:06:32.566Z,10.10
2023-03-15T16:09:02.585Z,8.43
2023-03-15T16:11:31.436Z,9.02
2023-03-15T16:13:59.779Z,7.22
2023-03-15T16:16:28.492Z,8.55
2023-03-15T16:18:56.754Z,8.02
2023-03-15T16:21:33.614Z,9.40
2023-03-15T16:24:10.031Z,8.05
2023-03-15T16:26:40.383Z,10.45
2023-03-15T16:29:18.718Z,9.35
2023-03-15T16:31:47.500Z,9.63
2023-03-15T16:34:17.439Z,11.45
2023-03-15T16:36:49.803Z,11.32
2023-03-15T16:39:19.833Z,10.57
2023-03-15T16:41:48.417Z,8.63
2023-03-15T16:44:19.515Z,7.85
2023-03-15T16:46:48.545Z,8.80
2023-03-15T16:49:17.292Z,8.20
2023-03-15T16:51:51.233Z,8.60
2023-03-15T16:54:38.331Z,8.52
2023-03-15T16:57:15.341Z,8.63
2023-03-15T16:59:43.611Z,8.65
2023-03-15T17:02:20.683Z,9.10
2023-03-15T17:04:49.295Z,8.43
2023-03-15T17:07:18.220Z,8.57
2023-03-15T17:09:50.537Z,8.82
2023-03-15T17:12:23.778Z,8.50
2023-03-15T17:14:53.561Z,6.82
2023-03-15T17:17:21.887Z,5.57
2023-03-15T17:19:50.240Z,7.20
2023-03-15T17:22:19.178Z,5.10
2023-03-15T17:24:49.970Z,6.15
2023-03-15T17:27:23.592Z,6.63
2023-03-15T17:29:52.090Z,6.30
2023-03-15T17:32:20.486Z,5.68
2023-03-15T17:34:48.788Z,5.82
2023-03-15T17:37:19.919Z,5.70
2023-03-15T17:39:50.060Z,5.75
2023-03-15T17:42:19.579Z,5.85
2023-03-15T17:44:47.837Z,6.35
2023-03-15T17:47:16.247Z,6.30
2023-03-15T17:49:44.768Z,4.90
2023-03-15T17:52:15.621Z,5.40
2023-03-15T17:54:44.018Z,6.30
2023-03-15T17:57:14.031Z,5.13
2023-03-15T17:59:42.407Z,4.88
2023-03-15T18:02:16.200Z,5.45
2023-03-15T18:04:44.507Z,5.80
2023-03-15T18:07:12.852Z,6.45
2023-03-15T18:09:43.334Z,6.97
2023-03-15T18:12:15.304Z,6.60
2023-03-15T18:14:43.789Z,6.32
2023-03-15T18:17:12.439Z,6.25
2023-03-15T18:19:40.750Z,7.72
2023-03-15T18:22:15.670Z,6.95
2023-03-15T18:24:46.922Z,7.45
2023-03-15T18:27:16.838Z,7.22
2023-03-15T18:29:45.165Z,7.03
2023-03-15T18:32:13.580Z,8.88
2023-03-15T18:34:42.272Z,8.25
2023-03-15T18:37:11.717Z,7.30
2023-03-15T18:39:40.053Z,7.75
2023-03-15T18:42:08.354Z,9.77
2023-03-15T18:44:38.011Z,8.63
2023-03-15T18:47:08.565Z,8.98
2023-03-15T18:49:37.008Z,9.82
2023-03-15T18:52:05.536Z,9.75
2023-03-15T18:54:33.836Z,9.80
2023-03-15T18:57:02.107Z,9.27
2023-03-15T18:59:30.349Z,10.77
2023-03-15T19:02:00.137Z,10.20
2023-03-15T19:04:28.399Z,9.68
2023-03-15T19:06:56.717Z,9.63
2023-03-15T19:09:25.086Z,9.70
2023-03-15T19:11:53.421Z,9.13
2023-03-15T19:14:21.819Z,9.70
2023-03-15T19:16:50.218Z,10.00
2023-03-15T19:19:19.929Z,10.18
2023-03-15T19:21:48.216Z,10.60
2023-03-15T19:24:16.558Z,11.07
2023-03-15T19:26:45.188Z,12.85
2023-03-15T19:29:13.408Z,12.77
2023-03-15T19:31:41.767Z,12.32
2023-03-15T19:34:10.028Z,11.38
2023-03-15T19:36:39.705Z,10.45
2023-03-15T19:39:10.386Z,11.00
2023-03-15T19:41:38.675Z,11.25
2023-03-15T19:44:07.386Z,10.20
2023-03-15T19:46:35.796Z,10.20
2023-03-15T19:49:04.693Z,10.30
2023-03-15T19:51:33.049Z,10.20
2023-03-15T19:54:03.160Z,10.30
2023-03-15T19:56:31.624Z,11.02
2023-03-15T19:58:59.927Z,12.63
2023-03-15T20:01:28.388Z,13.45
2023-03-15T20:03:56.842Z,13.43
2023-03-15T20:06:25.294Z,14.43
2023-03-15T20:08:53.479Z,14.25
2023-03-15T20:11:25.218Z,12.60
2023-03-15T20:13:54.021Z,12.25
2023-03-15T20:16:23.348Z,13.35
2023-03-15T20:18:52.122Z,12.35
2023-03-15T20:21:20.512Z,12.35
2023-03-15T20:23:49.209Z,13.13
2023-03-15T20:26:19.140Z,10.85
2023-03-15T20:28:48.817Z,12.50
2023-03-15T20:31:19.439Z,12.48
2023-03-15T20:33:50.852Z,12.43
2023-03-15T20:36:19.656Z,12.40
2023-03-15T20:38:48.079Z,12.55
2023-03-15T20:41:18.272Z,13.40
2023-03-15T20:43:48.159Z,13.75
2023-03-15T20:46:18.965Z,13.82
2023-03-15T20:48:47.514Z,12.52
2023-03-15T20:51:15.729Z,10.32
2023-03-15T20:53:44.179Z,9.65
2023-03-15T20:56:12.409Z,8.00
2023-03-15T20:58:40.710Z,5.95
2023-03-15T21:01:13.168Z,6.20
2023-03-15T21:03:42.165Z,5.32
2023-03-15T21:06:11.633Z,4.65
2023-03-15T21:08:41.587Z,3.45
2023-03-15T21:11:09.937Z,3.97
2023-03-15T21:13:38.272Z,4.05
2023-03-15T21:16:07.067Z,2.42
2023-03-15T21:18:37.723Z,4.00
2023-03-15T21:21:07.903Z,3.00
2023-03-15T21:23:37.121Z,3.10
2023-03-15T21:26:07.427Z,2.65
2023-03-15T21:28:35.718Z,3.05
2023-03-15T21:31:04.111Z,3.75
2023-03-15T21:33:33.416Z,2.90
2023-03-15T21:36:03.476Z,2.92
2023-03-15T21:38:33.493Z,2.30
2023-03-15T21:41:02.141Z,3.00
2023-03-15T21:43:32.911Z,3.10
2023-03-15T21:46:03.353Z,2.30
2023-03-15T21:48:32.326Z,1.55
2023-03-15T21:51:02.264Z,1.63
2023-03-15T21:53:31.726Z,1.70
2023-03-15T21:56:00.374Z,1.52
2023-03-15T21:58:29.867Z,1.65
2023-03-15T22:00:59.575Z,1.40
2023-03-15T22:03:28.137Z,1.50
2023-03-15T22:05:56.398Z,1.45
2023-03-15T22:08:27.244Z,1.63
2023-03-15T22:10:56.540Z,1.80
2023-03-15T22:13:25.193Z,1.25
2023-03-15T22:15:53.614Z,1.20
2023-03-15T22:18:22.234Z,1.30
2023-03-15T22:20:51.460Z,1.30
2023-03-15T22:23:19.974Z,0.90
2023-03-15T22:25:49.656Z,1.48
2023-03-15T22:28:17.945Z,1.17
2023-03-15T22:30:48.893Z,1.38
2023-03-15T22:33:18.198Z,1.20
2023-03-15T22:35:46.953Z,1.30
2023-03-15T22:38:15.849Z,1.08
2023-03-15T22:40:44.052Z,1.20
2023-03-15T22:43:14.013Z,1.00
2023-03-15T22:45:42.239Z,0.70
2023-03-15T22:48:10.493Z,0.95
2023-03-15T22:50:38.677Z,0.95
2023-03-15T22:53:06.893Z,0.93
2023-03-15T22:55:35.147Z,0.82
2023-03-15T22:58:03.434Z,0.90
2023-03-15T23:00:33.201Z,0.93
2023-03-15T23:03:01.518Z,0.85
2023-03-15T23:05:29.792Z,0.90
2023-03-15T23:07:58.037Z,0.80
2023-03-15T23:10:26.530Z,0.85
2023-03-15T23:12:54.971Z,0.80
2023-03-15T23:15:23.197Z,1.10
2023-03-15T23:17:54.600Z,0.90
2023-03-15T23:20:24.891Z,1.08
2023-03-15T23:22:53.493Z,1.50
2023-03-15T23:25:23.774Z,1.00
2023-03-15T23:27:52.351Z,1.10
2023-03-15T23:30:20.626Z,0.70
2023-03-15T23:32:50.988Z,0.90
2023-03-15T23:35:22.301Z,0.75
2023-03-15T23:37:50.971Z,1.50
2023-03-15T23:40:20.292Z,0.75
2023-03-15T23:42:48.739Z,0.93
2023-03-15T23:45:17.150Z,0.95
2023-03-15T23:47:45.927Z,1.00
2023-03-15T23:50:14.635Z,1.00
2023-03-15T23:52:44.262Z,1.20
2023-03-15T23:55:12.549Z,1.40
2023-03-15T23:57:41.427Z,1.20
